Time;durP1;ratioP1;P1;durP2;ratioP2;P2;SDS_P1;SDS_P2;PMS_P1;PMS_P2;Temp;Humidity;BMP_temperature;BMP_pressure;BME280_temperature;BME280_humidity;BME280_pressure;Samples;Min_cycle;Max_cycle;Signal;HPM_P1;HPM_P2
2022/07/01 00:01:21;;;;;;;;;;;15.40;99.90;;;;;;5005470;28;19996;-75
2022/07/01 00:03:50;;;;;;;;;;;15.40;99.90;;;;;;5004835;28;20421;-75
2022/07/01 00:06:16;;;;;;;;;;;15.40;99.90;;;;;;5000508;28;19918;-75
2022/07/01 00:08:42;;;;;;;;;;;15.40;99.90;;;;;;5005639;28;19971;-75
2022/07/01 00:11:07;;;;;;;;;;;15.40;99.90;;;;;;4990038;28;19921;-75
2022/07/01 00:13:33;;;;;;;;;;;15.40;99.90;;;;;;5003017;28;20083;-75
2022/07/01 00:15:59;;;;;;;;;;;15.30;99.90;;;;;;5006872;28;19967;-74
2022/07/01 00:18:24;;;;;;;;;;;15.30;99.90;;;;;;5004715;28;19936;-74
2022/07/01 00:20:53;;;;;;;;;;;15.40;99.90;;;;;;5002236;28;19925;-74
2022/07/01 00:23:19;;;;;;;;;;;15.40;99.90;;;;;;5001669;28;19917;-75
2022/07/01 00:25:44;;;;;;;;;;;15.40;99.90;;;;;;5006418;28;19928;-74
2022/07/01 00:28:10;;;;;;;;;;;15.40;99.90;;;;;;5003404;28;19924;-75
2022/07/01 00:30:36;;;;;;;;;;;15.30;99.90;;;;;;5005354;28;19979;-75
2022/07/01 00:33:02;;;;;;;;;;;15.30;99.90;;;;;;4988525;28;19928;-75
2022/07/01 00:35:28;;;;;;;;;;;15.30;99.90;;;;;;5002717;28;19918;-75
2022/07/01 00:37:53;;;;;;;;;;;15.40;99.90;;;;;;5001440;28;19921;-75
2022/07/01 00:40:19;;;;;;;;;;;15.30;99.90;;;;;;5002999;28;20288;-75
2022/07/01 00:42:44;;;;;;;;;;;15.30;99.90;;;;;;4999761;28;19921;-74
2022/07/01 00:45:10;;;;;;;;;;;15.30;99.90;;;;;;5003560;28;20003;-75
2022/07/01 00:47:36;;;;;;;;;;;15.30;99.90;;;;;;5003430;28;19921;-74
2022/07/01 00:50:06;;;;;;;;;;;15.30;99.90;;;;;;5002582;28;19932;-74
2022/07/01 00:52:32;;;;;;;;;;;15.30;99.90;;;;;;5002898;28;19918;-74
2022/07/01 00:54:59;;;;;;;;;;;15.30;99.90;;;;;;4990369;28;19918;-75
2022/07/01 00:57:29;;;;;;;;;;;15.30;99.90;;;;;;5001903;28;19921;-74
2022/07/01 00:59:55;;;;;;;;;;;15.30;99.90;;;;;;5002340;28;20303;-74
2022/07/01 01:02:20;;;;;;;;;;;15.30;99.90;;;;;;5003761;28;19917;-74
2022/07/01 01:04:46;;;;;;;;;;;15.30;99.90;;;;;;5003560;28;19917;-74
2022/07/01 01:07:13;;;;;;;;;;;15.30;99.90;;;;;;5001754;28;20389;-74
2022/07/01 01:09:38;;;;;;;;;;;15.30;99.90;;;;;;5005132;28;19925;-74
2022/07/01 01:12:04;;;;;;;;;;;15.30;99.90;;;;;;5004208;28;19975;-74
2022/07/01 01:14:42;;;;;;;;;;;15.30;99.90;;;;;;5007283;28;19921;-74
2022/07/01 01:17:07;;;;;;;;;;;15.30;99.90;;;;;;5007334;28;20284;-74
2022/07/01 01:19:33;;;;;;;;;;;15.40;99.90;;;;;;5003910;28;19932;-74
2022/07/01 01:21:59;;;;;;;;;;;15.30;99.90;;;;;;5006802;28;19932;-74
2022/07/01 01:24:24;;;;;;;;;;;15.30;99.90;;;;;;5005199;28;19980;-74
2022/07/01 01:26:50;;;;;;;;;;;15.30;99.90;;;;;;4999399;28;19933;-74
2022/07/01 01:29:16;;;;;;;;;;;15.30;99.90;;;;;;5003633;28;19917;-74
2022/07/01 01:31:41;;;;;;;;;;;15.30;99.90;;;;;;5005341;28;19917;-75
2022/07/01 01:34:07;;;;;;;;;;;15.30;99.90;;;;;;5002423;28;19917;-74
2022/07/01 01:36:32;;;;;;;;;;;15.30;99.90;;;;;;5005362;28;19972;-75
2022/07/01 01:41:36;;;;;;;;;;;15.20;99.90;;;;;;5006414;28;20260;-74
2022/07/01 01:44:01;;;;;;;;;;;15.20;99.90;;;;;;5000813;28;19972;-75
2022/07/01 01:46:28;;;;;;;;;;;15.20;99.90;;;;;;5007514;28;20287;-75
2022/07/01 01:48:54;;;;;;;;;;;15.20;99.90;;;;;;5005999;28;20008;-75
2022/07/01 01:51:20;;;;;;;;;;;15.20;99.90;;;;;;4989929;28;20007;-75
2022/07/01 01:53:46;;;;;;;;;;;15.20;99.90;;;;;;5002376;28;22629;-75
2022/07/01 01:56:11;;;;;;;;;;;15.20;99.90;;;;;;5001038;28;19918;-75
2022/07/01 01:58:37;;;;;;;;;;;15.20;99.90;;;;;;5008568;28;19925;-75
2022/07/01 02:01:02;;;;;;;;;;;15.20;99.90;;;;;;5004573;28;19924;-76
2022/07/01 02:03:28;;;;;;;;;;;15.30;99.90;;;;;;5003398;28;19921;-75
2022/07/01 02:05:54;;;;;;;;;;;15.30;99.90;;;;;;5007802;28;20295;-74
2022/07/01 02:08:19;;;;;;;;;;;15.30;99.90;;;;;;5003376;28;19918;-74
2022/07/01 02:10:45;;;;;;;;;;;15.30;99.90;;;;;;5007139;28;19917;-75
2022/07/01 02:13:10;;;;;;;;;;;15.30;99.90;;;;;;5004502;28;19917;-74
2022/07/01 02:15:36;;;;;;;;;;;15.20;99.90;;;;;;5005974;28;19921;-74
2022/07/01 02:18:02;;;;;;;;;;;15.30;99.90;;;;;;5002532;28;19961;-74
2022/07/01 02:20:27;;;;;;;;;;;15.30;99.90;;;;;;5004283;28;20387;-74
2022/07/01 02:22:53;;;;;;;;;;;15.20;99.90;;;;;;5005099;28;19965;-74
2022/07/01 02:25:19;;;;;;;;;;;15.20;99.90;;;;;;5007112;28;19923;-74
2022/07/01 02:27:45;;;;;;;;;;;15.30;99.90;;;;;;5005132;28;19928;-74
2022/07/01 02:30:10;;;;;;;;;;;15.30;99.90;;;;;;5003743;28;19925;-75
2022/07/01 02:32:36;;;;;;;;;;;15.30;99.90;;;;;;5001757;28;20287;-75
2022/07/01 02:35:02;;;;;;;;;;;15.30;99.90;;;;;;5003355;28;19964;-74
2022/07/01 02:37:27;;;;;;;;;;;15.30;99.90;;;;;;5005032;28;20398;-75
2022/07/01 02:39:53;;;;;;;;;;;15.40;99.90;;;;;;5003890;28;19971;-75
2022/07/01 02:42:31;;;;;;;;;;;15.30;99.90;;;;;;5001967;28;20395;-74
2022/07/01 02:44:57;;;;;;;;;;;15.40;99.90;;;;;;5002709;28;20343;-75
2022/07/01 02:47:22;;;;;;;;;;;15.30;99.90;;;;;;5006251;28;19917;-74
2022/07/01 02:49:48;;;;;;;;;;;15.30;99.90;;;;;;5001656;28;19922;-74
2022/07/01 02:52:15;;;;;;;;;;;15.20;99.90;;;;;;5006514;28;19932;-74
2022/07/01 02:54:41;;;;;;;;;;;15.10;99.90;;;;;;5001905;28;20264;-75
2022/07/01 02:57:07;;;;;;;;;;;15.00;99.90;;;;;;5006409;28;19921;-74
2022/07/01 02:59:32;;;;;;;;;;;15.00;99.90;;;;;;5002865;28;19929;-75
2022/07/01 03:01:58;;;;;;;;;;;15.00;99.90;;;;;;4990580;28;20407;-74
2022/07/01 03:04:23;;;;;;;;;;;14.90;99.90;;;;;;5003368;28;20625;-74
2022/07/01 03:06:49;;;;;;;;;;;14.80;99.90;;;;;;5004298;28;19950;-75
2022/07/01 03:09:15;;;;;;;;;;;14.80;99.90;;;;;;5004864;28;19948;-74
2022/07/01 03:11:40;;;;;;;;;;;14.90;99.90;;;;;;4989577;28;19924;-74
2022/07/01 03:14:06;;;;;;;;;;;14.80;99.90;;;;;;4989654;28;20440;-74
2022/07/01 03:16:32;;;;;;;;;;;14.80;99.90;;;;;;5003617;28;20302;-74
2022/07/01 03:18:57;;;;;;;;;;;14.70;99.90;;;;;;5003393;28;19921;-74
2022/07/01 03:21:23;;;;;;;;;;;14.70;99.90;;;;;;5003551;28;19921;-74
2022/07/01 03:23:48;;;;;;;;;;;14.70;99.90;;;;;;5005300;28;19917;-75
2022/07/01 03:26:14;;;;;;;;;;;14.60;99.90;;;;;;5004729;28;19926;-74
2022/07/01 03:28:40;;;;;;;;;;;14.70;99.90;;;;;;5003244;28;20294;-74
2022/07/01 03:31:06;;;;;;;;;;;14.60;99.90;;;;;;5004566;28;19917;-75
2022/07/01 03:33:31;;;;;;;;;;;14.60;99.90;;;;;;5002207;28;19918;-74
2022/07/01 03:35:57;;;;;;;;;;;14.60;99.90;;;;;;5005649;28;19917;-75
2022/07/01 03:38:22;;;;;;;;;;;14.60;99.90;;;;;;5002145;28;19991;-75
2022/07/01 03:40:48;;;;;;;;;;;14.60;99.90;;;;;;5003630;28;19972;-75
2022/07/01 03:43:13;;;;;;;;;;;14.70;99.90;;;;;;5003498;28;19964;-75
2022/07/01 03:45:39;;;;;;;;;;;14.70;99.90;;;;;;5003101;28;19957;-76
2022/07/01 03:48:05;;;;;;;;;;;14.70;99.90;;;;;;4991504;28;19928;-74
2022/07/01 03:50:30;;;;;;;;;;;14.70;99.90;;;;;;5002547;28;19928;-75
2022/07/01 03:55:40;;;;;;;;;;;14.70;99.90;;;;;;5004392;28;19929;-74
2022/07/01 03:58:06;;;;;;;;;;;14.70;99.90;;;;;;5002865;28;19976;-75
2022/07/01 04:00:33;;;;;;;;;;;14.60;99.90;;;;;;5003154;28;19956;-74
2022/07/01 04:02:59;;;;;;;;;;;14.60;99.90;;;;;;5002393;28;20673;-74
2022/07/01 04:05:25;;;;;;;;;;;14.60;99.90;;;;;;5001888;28;19959;-75
2022/07/01 04:07:50;;;;;;;;;;;14.60;99.90;;;;;;5004417;28;19960;-75
2022/07/01 04:10:16;;;;;;;;;;;14.60;99.90;;;;;;5002689;28;20348;-73
2022/07/01 04:12:41;;;;;;;;;;;14.60;99.90;;;;;;5001938;28;19925;-75
2022/07/01 04:15:07;;;;;;;;;;;14.60;99.90;;;;;;5004245;28;19918;-74
2022/07/01 04:17:32;;;;;;;;;;;14.60;99.90;;;;;;5004842;28;19917;-75
2022/07/01 04:19:58;;;;;;;;;;;14.60;99.90;;;;;;5001236;28;20334;-75
2022/07/01 04:22:33;;;;;;;;;;;14.60;99.90;;;;;;5000902;28;19928;-76
2022/07/01 04:25:00;;;;;;;;;;;14.70;99.90;;;;;;5020494;28;19917;-74
2022/07/01 04:27:26;;;;;;;;;;;14.60;99.90;;;;;;4992215;28;19917;-73
2022/07/01 04:29:52;;;;;;;;;;;14.60;99.90;;;;;;4996239;28;19972;-74
2022/07/01 04:32:17;;;;;;;;;;;14.60;99.90;;;;;;5018800;28;19926;-74
2022/07/01 04:34:43;;;;;;;;;;;14.60;99.90;;;;;;4988634;28;19924;-74
2022/07/01 04:37:08;;;;;;;;;;;14.60;99.90;;;;;;4998748;28;20395;-74
2022/07/01 04:39:34;;;;;;;;;;;14.60;99.90;;;;;;5001251;28;19975;-74
2022/07/01 04:41:59;;;;;;;;;;;14.60;99.90;;;;;;5002951;28;19917;-74
2022/07/01 04:44:26;;;;;;;;;;;14.50;99.90;;;;;;5005145;28;19987;-75
2022/07/01 04:46:51;;;;;;;;;;;14.60;99.90;;;;;;5007286;28;20012;-74
2022/07/01 04:49:17;;;;;;;;;;;14.60;99.90;;;;;;4990624;28;20004;-75
2022/07/01 04:51:43;;;;;;;;;;;14.60;99.90;;;;;;5005529;28;20463;-75
2022/07/01 04:54:08;;;;;;;;;;;14.60;99.90;;;;;;5003302;28;19921;-74
2022/07/01 04:56:34;;;;;;;;;;;14.60;99.90;;;;;;5010002;28;19921;-74
2022/07/01 04:59:00;;;;;;;;;;;14.60;99.90;;;;;;5004257;28;20379;-74
2022/07/01 05:01:26;;;;;;;;;;;14.60;99.90;;;;;;5005096;28;19964;-74
2022/07/01 05:03:52;;;;;;;;;;;14.60;99.90;;;;;;5009284;28;19918;-75
2022/07/01 05:06:17;;;;;;;;;;;14.60;99.90;;;;;;5005491;28;19917;-76
2022/07/01 05:08:43;;;;;;;;;;;14.70;99.90;;;;;;4986470;28;19917;-74
2022/07/01 05:11:08;;;;;;;;;;;14.70;99.90;;;;;;5001265;28;20038;-74
2022/07/01 05:13:34;;;;;;;;;;;14.60;99.90;;;;;;5003944;28;19917;-74
2022/07/01 05:16:00;;;;;;;;;;;14.70;99.90;;;;;;5007754;28;19921;-74
2022/07/01 05:23:54;;;;;;;;;;;14.70;99.90;;;;;;5004444;28;20450;-75
2022/07/01 05:26:20;;;;;;;;;;;14.70;99.90;;;;;;5000984;28;19967;-75
2022/07/01 05:28:46;;;;;;;;;;;14.70;99.90;;;;;;5000621;28;19917;-76
2022/07/01 05:31:11;;;;;;;;;;;14.80;99.90;;;;;;5003718;28;19921;-75
2022/07/01 05:33:37;;;;;;;;;;;14.80;99.90;;;;;;4999202;28;19917;-75
2022/07/01 05:36:02;;;;;;;;;;;14.90;99.90;;;;;;5003363;28;19972;-75
2022/07/01 05:38:28;;;;;;;;;;;14.90;99.90;;;;;;5002617;28;19956;-75
2022/07/01 05:40:53;;;;;;;;;;;15.00;99.90;;;;;;5001402;28;19948;-75
2022/07/01 05:43:19;;;;;;;;;;;15.00;99.90;;;;;;4988432;28;19917;-75
2022/07/01 05:45:45;;;;;;;;;;;15.00;99.90;;;;;;5006318;28;19928;-75
2022/07/01 05:48:11;;;;;;;;;;;15.00;99.90;;;;;;5000902;28;19917;-75
2022/07/01 05:50:36;;;;;;;;;;;15.00;99.90;;;;;;5001267;28;19965;-75
2022/07/01 05:53:02;;;;;;;;;;;15.00;99.90;;;;;;5009810;28;19924;-75
2022/07/01 05:55:28;;;;;;;;;;;15.00;99.90;;;;;;5005632;28;19918;-75
2022/07/01 05:57:54;;;;;;;;;;;15.10;99.90;;;;;;4990627;28;19921;-75
2022/07/01 06:00:19;;;;;;;;;;;15.10;99.90;;;;;;5005344;28;20008;-76
2022/07/01 06:02:45;;;;;;;;;;;15.10;99.90;;;;;;5002866;28;19961;-75
2022/07/01 06:05:13;;;;;;;;;;;15.10;99.90;;;;;;5009751;28;20311;-74
2022/07/01 06:07:40;;;;;;;;;;;15.20;99.90;;;;;;4991293;28;19955;-73
2022/07/01 06:10:06;;;;;;;;;;;15.20;99.90;;;;;;5006182;28;19953;-76
2022/07/01 06:12:32;;;;;;;;;;;15.20;99.90;;;;;;5006252;28;19992;-75
2022/07/01 06:14:57;;;;;;;;;;;15.20;99.90;;;;;;5011570;28;20072;-75
2022/07/01 06:17:23;;;;;;;;;;;15.30;99.90;;;;;;5010786;28;19917;-75
2022/07/01 06:19:48;;;;;;;;;;;15.40;99.90;;;;;;5003062;28;19917;-75
2022/07/01 06:22:17;;;;;;;;;;;15.50;99.90;;;;;;5004365;28;19983;-75
2022/07/01 06:24:44;;;;;;;;;;;15.50;99.90;;;;;;5002736;28;19932;-73
2022/07/01 06:27:10;;;;;;;;;;;15.40;99.90;;;;;;5002567;28;19987;-74
2022/07/01 06:29:36;;;;;;;;;;;15.50;99.90;;;;;;5003200;28;19952;-75
2022/07/01 06:32:02;;;;;;;;;;;15.50;99.90;;;;;;5010750;28;20398;-75
2022/07/01 06:34:28;;;;;;;;;;;15.50;99.90;;;;;;4989225;28;20388;-75
2022/07/01 06:36:55;;;;;;;;;;;15.50;99.90;;;;;;5007400;28;19968;-75
2022/07/01 06:39:21;;;;;;;;;;;15.50;99.90;;;;;;5001689;28;19979;-75
2022/07/01 06:41:46;;;;;;;;;;;15.60;99.90;;;;;;5002725;28;19922;-75
2022/07/01 06:44:13;;;;;;;;;;;15.50;99.90;;;;;;5006586;28;19918;-74
2022/07/01 06:46:39;;;;;;;;;;;15.50;99.90;;;;;;5012200;22;19984;-73
2022/07/01 06:49:04;;;;;;;;;;;15.40;99.90;;;;;;4977710;28;19918;-73
2022/07/01 06:51:30;;;;;;;;;;;15.40;99.90;;;;;;4999538;28;19918;-73
2022/07/01 06:53:56;;;;;;;;;;;15.30;99.90;;;;;;4982537;28;19917;-73
2022/07/01 06:56:21;;;;;;;;;;;15.30;99.90;;;;;;4973282;28;19972;-73
2022/07/01 06:58:47;;;;;;;;;;;15.30;99.90;;;;;;4955304;28;19929;-73
2022/07/01 07:01:12;;;;;;;;;;;15.20;99.90;;;;;;4970228;28;19925;-73
2022/07/01 07:03:38;;;;;;;;;;;15.20;99.90;;;;;;4959374;28;19918;-72
2022/07/01 07:06:04;;;;;;;;;;;15.30;99.90;;;;;;4970146;28;19917;-73
2022/07/01 07:08:30;;;;;;;;;;;15.30;99.90;;;;;;4981761;28;20032;-74
2022/07/01 07:10:55;;;;;;;;;;;15.20;99.90;;;;;;4952355;28;20017;-73
2022/07/01 07:13:21;;;;;;;;;;;15.30;99.90;;;;;;4967824;28;20898;-73
2022/07/01 07:15:46;;;;;;;;;;;15.30;99.90;;;;;;4937999;28;19980;-73
2022/07/01 07:18:12;;;;;;;;;;;15.20;99.90;;;;;;4966770;28;20024;-73
2022/07/01 07:20:38;;;;;;;;;;;15.30;99.90;;;;;;4974900;28;19924;-73
2022/07/01 07:23:03;;;;;;;;;;;15.30;99.90;;;;;;4966515;28;19918;-73
2022/07/01 07:25:29;;;;;;;;;;;15.40;99.90;;;;;;4970749;28;19927;-73
2022/07/01 07:27:55;;;;;;;;;;;15.50;99.90;;;;;;4971584;28;19922;-73
2022/07/01 07:30:21;;;;;;;;;;;15.50;99.90;;;;;;4974270;28;20287;-72
2022/07/01 07:32:46;;;;;;;;;;;15.60;99.90;;;;;;4965636;28;19929;-72
2022/07/01 07:35:12;;;;;;;;;;;15.60;99.90;;;;;;4965982;28;19922;-73
2022/07/01 07:37:38;;;;;;;;;;;15.80;99.90;;;;;;4964584;28;20335;-72
2022/07/01 07:40:06;;;;;;;;;;;15.90;99.90;;;;;;4967402;28;20514;-72
2022/07/01 07:42:32;;;;;;;;;;;15.90;99.90;;;;;;4967546;28;20008;-72
2022/07/01 07:44:58;;;;;;;;;;;16.00;99.90;;;;;;4973786;28;20416;-72
2022/07/01 07:47:23;;;;;;;;;;;16.00;99.90;;;;;;4967172;28;19918;-72
2022/07/01 07:49:49;;;;;;;;;;;16.00;99.90;;;;;;4966893;28;19925;-72
2022/07/01 07:52:14;;;;;;;;;;;16.10;99.90;;;;;;4968951;28;19921;-73
2022/07/01 07:54:40;;;;;;;;;;;16.20;99.90;;;;;;4972162;28;19941;-73
2022/07/01 07:57:07;;;;;;;;;;;16.20;99.90;;;;;;4963804;28;20531;-72
2022/07/01 07:59:33;;;;;;;;;;;16.30;99.90;;;;;;4953779;28;19933;-73
2022/07/01 08:01:59;;;;;;;;;;;16.40;99.90;;;;;;4970920;28;19918;-72
2022/07/01 08:04:25;;;;;;;;;;;16.30;99.90;;;;;;4954279;28;20050;-73
2022/07/01 08:06:50;;;;;;;;;;;16.40;99.90;;;;;;4969989;28;20435;-72
2022/07/01 08:09:16;;;;;;;;;;;16.50;99.90;;;;;;4969574;28;20869;-72
2022/07/01 08:11:41;;;;;;;;;;;16.60;99.90;;;;;;4966467;28;20308;-72
2022/07/01 08:14:07;;;;;;;;;;;16.80;99.90;;;;;;4969978;28;19957;-72
2022/07/01 08:16:32;;;;;;;;;;;16.90;99.90;;;;;;4971189;28;19925;-72
2022/07/01 08:18:58;;;;;;;;;;;17.10;99.90;;;;;;4966143;28;19963;-72
2022/07/01 08:21:24;;;;;;;;;;;17.30;99.90;;;;;;4974286;28;19917;-72
2022/07/01 08:23:49;;;;;;;;;;;17.60;99.90;;;;;;4965342;28;19918;-73
2022/07/01 08:26:17;;;;;;;;;;;17.80;99.90;;;;;;4972711;28;19924;-73
2022/07/01 08:28:43;;;;;;;;;;;18.10;99.90;;;;;;4955418;28;19941;-73
2022/07/01 08:31:09;;;;;;;;;;;18.10;99.90;;;;;;4968969;28;20468;-73
2022/07/01 08:33:34;;;;;;;;;;;18.10;99.90;;;;;;4969845;28;19928;-73
2022/07/01 08:36:00;;;;;;;;;;;18.10;99.90;;;;;;4968292;28;19997;-73
2022/07/01 08:38:26;;;;;;;;;;;18.20;99.90;;;;;;4975306;28;19926;-73
2022/07/01 08:40:52;;;;;;;;;;;18.20;99.90;;;;;;4968662;28;19918;-74
2022/07/01 08:43:17;;;;;;;;;;;18.20;99.90;;;;;;4970872;28;20394;-73
2022/07/01 08:45:43;;;;;;;;;;;18.10;99.90;;;;;;4976208;28;20005;-74
2022/07/01 08:48:08;;;;;;;;;;;17.90;99.90;;;;;;4974975;28;19965;-73
2022/07/01 08:50:35;;;;;;;;;;;17.80;99.90;;;;;;4971500;28;20377;-73
2022/07/01 08:53:01;;;;;;;;;;;18.00;99.90;;;;;;4965607;28;19969;-73
2022/07/01 08:55:27;;;;;;;;;;;18.10;99.90;;;;;;4968455;28;19923;-73
2022/07/01 08:57:52;;;;;;;;;;;18.20;99.90;;;;;;4970755;28;20379;-73
2022/07/01 09:00:18;;;;;;;;;;;18.30;99.90;;;;;;4972753;28;20377;-73
2022/07/01 09:02:51;;;;;;;;;;;18.30;99.90;;;;;;4966611;28;20009;-73
2022/07/01 09:05:17;;;;;;;;;;;18.50;99.90;;;;;;4970015;28;20024;-73
2022/07/01 09:07:43;;;;;;;;;;;18.40;99.90;;;;;;4974446;28;19954;-74
2022/07/01 09:10:19;;;;;;;;;;;18.40;99.90;;;;;;4970862;28;20343;-73
2022/07/01 09:12:45;;;;;;;;;;;18.50;99.90;;;;;;4969693;28;19918;-73
2022/07/01 09:15:25;;;;;;;;;;;18.40;99.90;;;;;;4971323;28;19925;-74
2022/07/01 09:17:52;;;;;;;;;;;18.60;99.90;;;;;;4944395;28;19973;-73
2022/07/01 09:20:25;;;;;;;;;;;18.60;99.90;;;;;;4955553;28;19964;-73
2022/07/01 09:22:58;;;;;;;;;;;18.50;99.90;;;;;;4973599;28;19918;-73
2022/07/01 09:25:28;;;;;;;;;;;18.20;99.90;;;;;;4951609;28;19918;-73
2022/07/01 09:28:12;;;;;;;;;;;18.20;99.90;;;;;;4964948;28;20360;-73
2022/07/01 09:30:38;;;;;;;;;;;18.00;99.90;;;;;;4954671;28;19922;-73
2022/07/01 09:33:05;;;;;;;;;;;18.00;99.90;;;;;;4976805;28;19924;-73
2022/07/01 09:35:49;;;;;;;;;;;18.10;99.90;;;;;;4973965;28;19918;-73
2022/07/01 09:38:44;;;;;;;;;;;18.20;99.90;;;;;;4970827;28;22197;-74
2022/07/01 09:41:37;;;;;;;;;;;18.40;99.90;;;;;;4972466;28;20372;-74
2022/07/01 09:44:23;;;;;;;;;;;18.40;99.90;;;;;;4974999;28;19918;-74
2022/07/01 09:46:52;;;;;;;;;;;18.40;99.90;;;;;;4978819;28;20012;-74
2022/07/01 09:49:18;;;;;;;;;;;18.50;99.90;;;;;;4975959;28;19924;-74
2022/07/01 09:51:44;;;;;;;;;;;18.60;99.90;;;;;;4981648;28;19918;-73
2022/07/01 09:54:11;;;;;;;;;;;18.90;99.90;;;;;;4971694;28;19969;-74
2022/07/01 09:56:37;;;;;;;;;;;19.10;99.90;;;;;;4986976;28;19922;-74
2022/07/01 09:59:03;;;;;;;;;;;19.00;99.90;;;;;;4968240;28;20398;-73
2022/07/01 10:01:28;;;;;;;;;;;19.00;99.90;;;;;;4981702;28;19918;-74
2022/07/01 10:03:54;;;;;;;;;;;19.20;99.90;;;;;;4961064;28;20380;-74
2022/07/01 10:06:39;;;;;;;;;;;19.40;99.90;;;;;;4968468;28;20295;-73
2022/07/01 10:09:07;;;;;;;;;;;19.40;99.90;;;;;;4971555;28;19918;-73
2022/07/01 10:11:37;;;;;;;;;;;19.20;99.90;;;;;;4967382;28;19922;-74
2022/07/01 10:14:07;;;;;;;;;;;19.20;99.90;;;;;;4970211;28;19925;-74
2022/07/01 10:16:33;;;;;;;;;;;19.20;99.90;;;;;;4974648;28;19922;-74
2022/07/01 10:18:59;;;;;;;;;;;19.30;99.90;;;;;;4970460;28;19965;-74
2022/07/01 10:21:29;;;;;;;;;;;19.70;99.90;;;;;;4974998;28;19953;-74
2022/07/01 10:24:14;;;;;;;;;;;19.90;99.90;;;;;;4975042;28;19918;-73
2022/07/01 10:26:40;;;;;;;;;;;20.00;99.90;;;;;;4968137;28;19918;-73
2022/07/01 10:29:26;;;;;;;;;;;20.00;99.90;;;;;;4971669;28;19972;-73
2022/07/01 10:31:52;;;;;;;;;;;20.10;99.90;;;;;;4972348;28;20012;-73
2022/07/01 10:34:18;;;;;;;;;;;20.50;99.90;;;;;;4981820;28;20336;-74
2022/07/01 10:36:44;;;;;;;;;;;20.80;99.90;;;;;;4967836;28;19922;-74
2022/07/01 10:39:11;;;;;;;;;;;20.80;99.90;;;;;;4950586;28;19929;-73
2022/07/01 10:41:39;;;;;;;;;;;20.70;99.90;;;;;;4969622;28;19921;-73
2022/07/01 10:44:06;;;;;;;;;;;20.70;99.90;;;;;;4961153;28;19925;-73
2022/07/01 10:46:49;;;;;;;;;;;20.70;99.90;;;;;;4980450;28;20043;-73
2022/07/01 10:49:16;;;;;;;;;;;20.40;99.90;;;;;;4980949;28;19930;-73
2022/07/01 10:51:48;;;;;;;;;;;20.50;99.90;;;;;;4982557;28;20348;-74
2022/07/01 10:54:33;;;;;;;;;;;20.70;99.90;;;;;;4984957;28;19995;-73
2022/07/01 10:57:18;;;;;;;;;;;21.20;99.90;;;;;;4974967;28;19918;-74
2022/07/01 10:59:45;;;;;;;;;;;21.60;99.90;;;;;;4972025;28;20369;-73
2022/07/01 11:02:11;;;;;;;;;;;21.70;99.90;;;;;;4964743;28;19918;-74
2022/07/01 11:04:37;;;;;;;;;;;21.60;99.90;;;;;;4982424;28;20371;-81
2022/07/01 11:07:03;;;;;;;;;;;21.90;99.90;;;;;;4975818;28;19921;-81
2022/07/01 11:09:29;;;;;;;;;;;22.00;99.90;;;;;;4986358;28;20359;-82
2022/07/01 11:11:54;;;;;;;;;;;22.10;99.90;;;;;;4974180;28;19918;-81
2022/07/01 11:14:20;;;;;;;;;;;22.00;99.90;;;;;;4973659;28;19918;-81
2022/07/01 11:16:45;;;;;;;;;;;22.00;99.90;;;;;;4965770;28;19922;-81
2022/07/01 11:19:11;;;;;;;;;;;21.90;99.90;;;;;;4987800;28;19928;-81
2022/07/01 11:21:36;;;;;;;;;;;22.00;99.90;;;;;;4981322;28;22127;-81
2022/07/01 11:24:02;;;;;;;;;;;22.20;99.90;;;;;;4979145;28;19918;-80
2022/07/01 11:26:28;;;;;;;;;;;22.10;99.90;;;;;;4970336;28;19919;-80
2022/07/01 11:28:54;;;;;;;;;;;22.20;99.90;;;;;;4972032;28;20265;-80
2022/07/01 11:31:26;;;;;;;;;;;22.30;99.90;;;;;;4980911;28;19918;-80
2022/07/01 11:33:52;;;;;;;;;;;22.50;99.90;;;;;;4979290;28;19918;-81
2022/07/01 11:41:47;;;;;;;;;;;21.80;99.90;;;;;;4971648;28;20296;-82
2022/07/01 11:44:12;;;;;;;;;;;21.20;99.70;;;;;;4962670;28;19918;-82
2022/07/01 11:46:38;;;;;;;;;;;20.80;99.90;;;;;;4989927;28;20043;-81
2022/07/01 11:49:11;;;;;;;;;;;20.40;99.90;;;;;;4964642;28;19924;-81
2022/07/01 11:51:36;;;;;;;;;;;20.30;99.90;;;;;;4971506;28;20291;-82
2022/07/01 11:54:02;;;;;;;;;;;20.40;99.90;;;;;;4983070;28;20008;-81
2022/07/01 11:56:31;;;;;;;;;;;20.70;99.90;;;;;;4949471;28;20021;-81
2022/07/01 11:58:57;;;;;;;;;;;20.90;99.90;;;;;;4967907;28;19922;-81
2022/07/01 12:01:33;;;;;;;;;;;20.80;99.90;;;;;;4973989;28;19918;-82
2022/07/01 12:04:00;;;;;;;;;;;20.80;99.90;;;;;;4976400;28;19972;-78
2022/07/01 12:06:26;;;;;;;;;;;20.80;99.90;;;;;;4977297;28;19972;-81
2022/07/01 12:08:53;;;;;;;;;;;20.90;99.90;;;;;;4975608;28;20443;-74
2022/07/01 12:11:19;;;;;;;;;;;20.80;99.90;;;;;;4965567;28;20340;-74
2022/07/01 12:13:46;;;;;;;;;;;20.40;99.90;;;;;;4968692;28;20376;-74
2022/07/01 12:16:12;;;;;;;;;;;20.50;99.90;;;;;;4967214;28;20342;-74
2022/07/01 12:18:38;;;;;;;;;;;20.70;99.90;;;;;;4967422;28;19969;-74
2022/07/01 12:21:04;;;;;;;;;;;20.90;99.90;;;;;;4970320;28;19922;-74
2022/07/01 12:23:30;;;;;;;;;;;21.10;99.90;;;;;;4963887;28;19938;-74
2022/07/01 12:25:56;;;;;;;;;;;21.30;99.90;;;;;;4968999;28;20017;-74
2022/07/01 12:28:28;;;;;;;;;;;21.60;99.90;;;;;;4967997;28;20001;-74
2022/07/01 12:31:01;;;;;;;;;;;21.60;99.90;;;;;;4967537;28;19918;-74
2022/07/01 12:33:27;;;;;;;;;;;21.60;99.90;;;;;;4968946;28;19922;-74
2022/07/01 12:35:53;;;;;;;;;;;21.10;99.90;;;;;;4970162;28;19918;-74
2022/07/01 12:38:19;;;;;;;;;;;20.70;98.20;;;;;;4966059;28;19922;-74
2022/07/01 12:40:44;;;;;;;;;;;20.80;99.90;;;;;;4970252;28;20324;-74
2022/07/01 12:43:28;;;;;;;;;;;20.90;99.90;;;;;;4969608;28;19939;-74
2022/07/01 12:46:00;;;;;;;;;;;21.20;99.90;;;;;;4963362;28;19926;-74
2022/07/01 12:48:26;;;;;;;;;;;21.40;99.90;;;;;;4971877;28;19926;-74
2022/07/01 12:50:53;;;;;;;;;;;21.50;99.90;;;;;;4968791;28;19940;-74
2022/07/01 12:53:20;;;;;;;;;;;21.40;99.90;;;;;;4970990;28;19973;-74
2022/07/01 12:55:47;;;;;;;;;;;21.10;99.90;;;;;;4970969;28;19965;-74
2022/07/01 12:58:14;;;;;;;;;;;21.00;99.90;;;;;;4971673;28;19922;-74
2022/07/01 13:00:40;;;;;;;;;;;20.80;99.90;;;;;;4964355;28;19989;-73
2022/07/01 13:03:06;;;;;;;;;;;20.50;99.90;;;;;;4959067;28;19918;-73
2022/07/01 13:05:32;;;;;;;;;;;20.70;99.90;;;;;;4971758;28;19918;-74
2022/07/01 13:07:58;;;;;;;;;;;21.00;99.90;;;;;;4972195;28;20005;-73
2022/07/01 13:10:23;;;;;;;;;;;21.00;99.90;;;;;;4976467;28;20012;-74
2022/07/01 13:12:49;;;;;;;;;;;20.80;99.90;;;;;;4972138;28;20394;-74
2022/07/01 13:15:15;;;;;;;;;;;21.00;99.90;;;;;;4975575;28;19933;-74
2022/07/01 13:17:41;;;;;;;;;;;21.10;99.90;;;;;;4977724;28;19964;-74
2022/07/01 13:20:07;;;;;;;;;;;21.30;99.90;;;;;;4967959;28;19921;-74
2022/07/01 13:22:33;;;;;;;;;;;21.10;99.90;;;;;;4973654;28;19957;-74
2022/07/01 13:24:59;;;;;;;;;;;20.70;99.90;;;;;;4976611;28;19921;-74
2022/07/01 13:27:25;;;;;;;;;;;20.50;99.90;;;;;;4990380;28;19918;-74
2022/07/01 13:29:51;;;;;;;;;;;20.40;99.90;;;;;;4974264;28;19918;-74
2022/07/01 13:32:16;;;;;;;;;;;20.40;99.90;;;;;;4981606;28;19922;-74
2022/07/01 13:34:42;;;;;;;;;;;20.40;99.90;;;;;;4977563;28;19925;-74
2022/07/01 13:37:08;;;;;;;;;;;20.50;99.90;;;;;;4972264;28;20000;-74
2022/07/01 13:39:33;;;;;;;;;;;20.50;99.90;;;;;;4976874;28;19929;-74
2022/07/01 13:41:59;;;;;;;;;;;20.70;99.90;;;;;;4984328;28;19941;-74
2022/07/01 13:44:24;;;;;;;;;;;20.90;99.90;;;;;;4983313;28;19924;-74
2022/07/01 13:46:50;;;;;;;;;;;21.00;99.90;;;;;;4981282;28;19925;-74
2022/07/01 13:49:16;;;;;;;;;;;20.80;99.90;;;;;;4974963;28;19926;-74
2022/07/01 13:51:41;;;;;;;;;;;21.00;99.90;;;;;;4984737;28;19955;-74
2022/07/01 13:54:07;;;;;;;;;;;21.30;99.90;;;;;;4988620;28;19918;-74
2022/07/01 13:56:33;;;;;;;;;;;21.60;99.90;;;;;;4979749;28;20086;-74
2022/07/01 13:58:58;;;;;;;;;;;21.80;99.90;;;;;;4973486;28;19923;-74
2022/07/01 14:01:24;;;;;;;;;;;22.10;99.90;;;;;;4979999;28;19918;-74
2022/07/01 14:03:50;;;;;;;;;;;22.40;99.90;;;;;;4965529;28;19925;-74
2022/07/01 14:06:16;;;;;;;;;;;22.30;99.90;;;;;;4980836;28;19922;-74
2022/07/01 14:08:41;;;;;;;;;;;22.10;99.90;;;;;;4982179;28;19925;-74
2022/07/01 14:11:07;;;;;;;;;;;21.80;97.20;;;;;;4975436;28;19925;-74
2022/07/01 14:13:34;;;;;;;;;;;21.70;99.90;;;;;;4972696;28;20599;-74
2022/07/01 14:16:00;;;;;;;;;;;21.90;99.90;;;;;;4974268;28;19972;-74
2022/07/01 14:18:26;;;;;;;;;;;22.30;99.90;;;;;;4963050;28;19992;-74
2022/07/01 14:20:52;;;;;;;;;;;22.50;98.10;;;;;;4988894;28;19918;-74
2022/07/01 14:23:17;;;;;;;;;;;22.60;97.60;;;;;;4975561;28;20351;-74
2022/07/01 14:25:45;;;;;;;;;;;22.60;95.80;;;;;;4970904;28;19918;-74
2022/07/01 14:28:11;;;;;;;;;;;22.40;94.70;;;;;;4980760;28;19960;-74
2022/07/01 14:30:36;;;;;;;;;;;22.20;94.90;;;;;;4983252;28;19922;-74